sensor_id;sensor_type;location;lat;lon;timestamp;P1;durP1;ratioP1;P2;durP2;ratioP2
16965;SDS011;8599;47.852;12.070;2023-06-19T00:00:42;10.70;;;8.38;;
16965;SDS011;8599;47.852;12.070;2023-06-19T00:03:08;11.88;;;9.38;;
16965;SDS011;8599;47.852;12.070;2023-06-19T00:05:36;11.93;;;8.55;;
16965;SDS011;8599;47.852;12.070;2023-06-19T00:08:03;13.55;;;9.35;;
16965;SDS011;8599;47.852;12.070;2023-06-19T00:10:31;12.70;;;8.93;;
16965;SDS011;8599;47.852;12.070;2023-06-19T00:12:58;11.13;;;8.50;;
16965;SDS011;8599;47.852;12.070;2023-06-19T00:15:25;12.73;;;9.10;;
16965;SDS011;8599;47.852;12.070;2023-06-19T00:17:54;13.00;;;9.30;;
16965;SDS011;8599;47.852;12.070;2023-06-19T00:20:21;13.55;;;9.18;;
16965;SDS011;8599;47.852;12.070;2023-06-19T00:22:50;13.20;;;9.30;;
16965;SDS011;8599;47.852;12.070;2023-06-19T00:25:17;13.25;;;8.88;;
16965;SDS011;8599;47.852;12.070;2023-06-19T00:27:44;15.05;;;9.20;;
16965;SDS011;8599;47.852;12.070;2023-06-19T00:30:11;11.13;;;8.13;;
16965;SDS011;8599;47.852;12.070;2023-06-19T00:32:38;11.73;;;8.63;;
16965;SDS011;8599;47.852;12.070;2023-06-19T00:35:11;11.25;;;8.55;;
16965;SDS011;8599;47.852;12.070;2023-06-19T00:37:39;12.53;;;8.70;;
16965;SDS011;8599;47.852;12.070;2023-06-19T00:40:11;12.25;;;8.80;;
16965;SDS011;8599;47.852;12.070;2023-06-19T00:42:42;12.13;;;8.88;;
16965;SDS011;8599;47.852;12.070;2023-06-19T00:45:09;12.85;;;8.93;;
16965;SDS011;8599;47.852;12.070;2023-06-19T00:47:36;12.35;;;8.52;;
16965;SDS011;8599;47.852;12.070;2023-06-19T00:50:04;12.73;;;9.05;;
16965;SDS011;8599;47.852;12.070;2023-06-19T00:52:32;12.35;;;8.60;;
16965;SDS011;8599;47.852;12.070;2023-06-19T00:54:58;12.32;;;8.38;;
16965;SDS011;8599;47.852;12.070;2023-06-19T00:57:27;13.07;;;8.98;;
16965;SDS011;8599;47.852;12.070;2023-06-19T00:59:54;13.07;;;8.98;;
16965;SDS011;8599;47.852;12.070;2023-06-19T01:02:22;13.75;;;8.98;;
16965;SDS011;8599;47.852;12.070;2023-06-19T01:04:50;14.02;;;9.40;;
16965;SDS011;8599;47.852;12.070;2023-06-19T01:07:18;12.80;;;8.73;;
16965;SDS011;8599;47.852;12.070;2023-06-19T01:09:51;11.55;;;8.10;;
16965;SDS011;8599;47.852;12.070;2023-06-19T01:12:22;13.68;;;8.88;;
16965;SDS011;8599;47.852;12.070;2023-06-19T01:14:57;13.00;;;8.75;;
16965;SDS011;8599;47.852;12.070;2023-06-19T01:17:26;15.38;;;8.70;;
16965;SDS011;8599;47.852;12.070;2023-06-19T01:19:54;12.25;;;8.35;;
16965;SDS011;8599;47.852;12.070;2023-06-19T01:22:26;11.38;;;8.18;;
16965;SDS011;8599;47.852;12.070;2023-06-19T01:24:53;9.60;;;8.13;;
16965;SDS011;8599;47.852;12.070;2023-06-19T01:27:20;10.70;;;8.32;;
16965;SDS011;8599;47.852;12.070;2023-06-19T01:29:47;13.50;;;8.98;;
16965;SDS011;8599;47.852;12.070;2023-06-19T01:32:15;12.93;;;8.98;;
16965;SDS011;8599;47.852;12.070;2023-06-19T01:34:46;12.52;;;7.93;;
16965;SDS011;8599;47.852;12.070;2023-06-19T01:37:14;15.95;;;8.70;;
16965;SDS011;8599;47.852;12.070;2023-06-19T01:39:43;13.00;;;8.93;;
16965;SDS011;8599;47.852;12.070;2023-06-19T01:42:12;11.63;;;8.35;;
16965;SDS011;8599;47.852;12.070;2023-06-19T01:44:40;13.23;;;9.23;;
16965;SDS011;8599;47.852;12.070;2023-06-19T01:47:08;13.38;;;8.43;;
16965;SDS011;8599;47.852;12.070;2023-06-19T01:49:36;11.32;;;9.25;;
16965;SDS011;8599;47.852;12.070;2023-06-19T01:52:03;17.52;;;8.95;;
16965;SDS011;8599;47.852;12.070;2023-06-19T01:54:31;12.10;;;8.60;;
16965;SDS011;8599;47.852;12.070;2023-06-19T01:56:59;13.85;;;9.00;;
16965;SDS011;8599;47.852;12.070;2023-06-19T01:59:26;11.93;;;8.75;;
16965;SDS011;8599;47.852;12.070;2023-06-19T02:01:52;14.70;;;8.82;;
16965;SDS011;8599;47.852;12.070;2023-06-19T02:04:19;12.33;;;8.10;;
16965;SDS011;8599;47.852;12.070;2023-06-19T02:06:46;11.90;;;8.60;;
16965;SDS011;8599;47.852;12.070;2023-06-19T02:09:13;11.43;;;8.37;;
16965;SDS011;8599;47.852;12.070;2023-06-19T02:11:40;13.13;;;8.83;;
16965;SDS011;8599;47.852;12.070;2023-06-19T02:14:08;16.57;;;9.20;;
16965;SDS011;8599;47.852;12.070;2023-06-19T02:16:36;13.40;;;8.93;;
16965;SDS011;8599;47.852;12.070;2023-06-19T02:19:03;11.57;;;8.50;;
16965;SDS011;8599;47.852;12.070;2023-06-19T02:21:30;13.15;;;9.18;;
16965;SDS011;8599;47.852;12.070;2023-06-19T02:23:56;12.67;;;8.63;;
16965;SDS011;8599;47.852;12.070;2023-06-19T02:26:24;13.40;;;8.27;;
16965;SDS011;8599;47.852;12.070;2023-06-19T02:28:53;11.67;;;8.73;;
16965;SDS011;8599;47.852;12.070;2023-06-19T02:31:22;11.83;;;9.00;;
16965;SDS011;8599;47.852;12.070;2023-06-19T02:33:49;9.80;;;7.83;;
16965;SDS011;8599;47.852;12.070;2023-06-19T02:36:16;13.90;;;8.23;;
16965;SDS011;8599;47.852;12.070;2023-06-19T02:38:44;12.33;;;8.67;;
16965;SDS011;8599;47.852;12.070;2023-06-19T02:41:12;11.00;;;8.20;;
16965;SDS011;8599;47.852;12.070;2023-06-19T02:43:39;12.80;;;8.17;;
16965;SDS011;8599;47.852;12.070;2023-06-19T02:46:06;13.57;;;9.20;;
16965;SDS011;8599;47.852;12.070;2023-06-19T02:48:34;11.80;;;8.60;;
16965;SDS011;8599;47.852;12.070;2023-06-19T02:51:01;15.37;;;8.17;;
16965;SDS011;8599;47.852;12.070;2023-06-19T02:53:28;13.82;;;9.10;;
16965;SDS011;8599;47.852;12.070;2023-06-19T02:55:55;16.63;;;8.65;;
16965;SDS011;8599;47.852;12.070;2023-06-19T02:58:21;17.35;;;9.00;;
16965;SDS011;8599;47.852;12.070;2023-06-19T03:00:48;13.45;;;8.10;;
16965;SDS011;8599;47.852;12.070;2023-06-19T03:03:15;12.15;;;8.65;;
16965;SDS011;8599;47.852;12.070;2023-06-19T03:05:44;11.90;;;7.95;;
16965;SDS011;8599;47.852;12.070;2023-06-19T03:08:10;11.90;;;8.25;;
16965;SDS011;8599;47.852;12.070;2023-06-19T03:10:37;11.30;;;8.55;;
16965;SDS011;8599;47.852;12.070;2023-06-19T03:13:04;13.98;;;8.93;;
16965;SDS011;8599;47.852;12.070;2023-06-19T03:15:31;11.50;;;8.35;;
16965;SDS011;8599;47.852;12.070;2023-06-19T03:17:57;12.25;;;8.38;;
16965;SDS011;8599;47.852;12.070;2023-06-19T03:20:28;11.82;;;8.50;;
16965;SDS011;8599;47.852;12.070;2023-06-19T03:22:56;10.20;;;8.45;;
16965;SDS011;8599;47.852;12.070;2023-06-19T03:25:23;17.25;;;9.05;;
16965;SDS011;8599;47.852;12.070;2023-06-19T03:27:50;12.50;;;8.37;;
16965;SDS011;8599;47.852;12.070;2023-06-19T03:30:17;14.07;;;8.75;;
16965;SDS011;8599;47.852;12.070;2023-06-19T03:32:44;13.50;;;8.85;;
16965;SDS011;8599;47.852;12.070;2023-06-19T03:35:11;13.45;;;8.60;;
16965;SDS011;8599;47.852;12.070;2023-06-19T03:37:37;15.33;;;8.60;;
16965;SDS011;8599;47.852;12.070;2023-06-19T03:40:06;11.18;;;8.57;;
16965;SDS011;8599;47.852;12.070;2023-06-19T03:42:38;12.00;;;9.23;;
16965;SDS011;8599;47.852;12.070;2023-06-19T03:45:05;11.83;;;8.47;;
16965;SDS011;8599;47.852;12.070;2023-06-19T03:47:33;16.10;;;8.43;;
16965;SDS011;8599;47.852;12.070;2023-06-19T03:50:00;9.68;;;7.85;;
16965;SDS011;8599;47.852;12.070;2023-06-19T03:52:26;10.63;;;7.97;;
16965;SDS011;8599;47.852;12.070;2023-06-19T03:54:53;11.10;;;8.52;;
16965;SDS011;8599;47.852;12.070;2023-06-19T03:57:21;13.57;;;8.88;;
16965;SDS011;8599;47.852;12.070;2023-06-19T03:59:48;12.40;;;9.00;;
16965;SDS011;8599;47.852;12.070;2023-06-19T04:02:17;11.88;;;8.68;;
16965;SDS011;8599;47.852;12.070;2023-06-19T04:04:44;11.85;;;9.13;;
16965;SDS011;8599;47.852;12.070;2023-06-19T04:07:10;12.80;;;8.37;;
16965;SDS011;8599;47.852;12.070;2023-06-19T04:09:38;14.30;;;9.30;;
16965;SDS011;8599;47.852;12.070;2023-06-19T04:12:05;12.93;;;9.77;;
16965;SDS011;8599;47.852;12.070;2023-06-19T04:14:33;11.15;;;9.27;;
16965;SDS011;8599;47.852;12.070;2023-06-19T04:17:00;19.30;;;9.65;;
16965;SDS011;8599;47.852;12.070;2023-06-19T04:19:27;13.57;;;8.50;;
16965;SDS011;8599;47.852;12.070;2023-06-19T04:21:54;13.23;;;9.50;;
16965;SDS011;8599;47.852;12.070;2023-06-19T04:24:20;17.70;;;9.57;;
16965;SDS011;8599;47.852;12.070;2023-06-19T04:26:47;14.90;;;9.50;;
16965;SDS011;8599;47.852;12.070;2023-06-19T04:29:14;13.30;;;9.87;;
16965;SDS011;8599;47.852;12.070;2023-06-19T04:31:43;11.90;;;8.50;;
16965;SDS011;8599;47.852;12.070;2023-06-19T04:34:12;16.67;;;9.43;;
16965;SDS011;8599;47.852;12.070;2023-06-19T04:36:39;13.80;;;9.43;;
16965;SDS011;8599;47.852;12.070;2023-06-19T04:39:06;16.10;;;8.70;;
16965;SDS011;8599;47.852;12.070;2023-06-19T04:41:33;13.50;;;9.30;;
16965;SDS011;8599;47.852;12.070;2023-06-19T04:44:03;15.07;;;9.33;;
16965;SDS011;8599;47.852;12.070;2023-06-19T04:46:31;12.60;;;9.33;;
16965;SDS011;8599;47.852;12.070;2023-06-19T04:48:59;13.93;;;9.50;;
16965;SDS011;8599;47.852;12.070;2023-06-19T04:51:29;15.70;;;9.20;;
16965;SDS011;8599;47.852;12.070;2023-06-19T04:53:57;15.73;;;9.43;;
16965;SDS011;8599;47.852;12.070;2023-06-19T04:56:24;11.93;;;9.07;;
16965;SDS011;8599;47.852;12.070;2023-06-19T04:58:51;15.00;;;9.07;;
16965;SDS011;8599;47.852;12.070;2023-06-19T05:01:21;19.37;;;9.23;;
16965;SDS011;8599;47.852;12.070;2023-06-19T05:03:52;12.57;;;8.82;;
16965;SDS011;8599;47.852;12.070;2023-06-19T05:06:21;15.75;;;9.57;;
16965;SDS011;8599;47.852;12.070;2023-06-19T05:08:48;12.68;;;8.57;;
16965;SDS011;8599;47.852;12.070;2023-06-19T05:11:15;13.83;;;8.53;;
16965;SDS011;8599;47.852;12.070;2023-06-19T05:13:42;13.83;;;8.97;;
16965;SDS011;8599;47.852;12.070;2023-06-19T05:16:09;12.97;;;9.37;;
16965;SDS011;8599;47.852;12.070;2023-06-19T05:18:36;12.83;;;9.20;;
16965;SDS011;8599;47.852;12.070;2023-06-19T05:21:03;13.17;;;8.83;;
16965;SDS011;8599;47.852;12.070;2023-06-19T05:23:31;16.60;;;9.33;;
16965;SDS011;8599;47.852;12.070;2023-06-19T05:25:58;15.07;;;9.23;;
16965;SDS011;8599;47.852;12.070;2023-06-19T05:28:25;13.88;;;9.15;;
16965;SDS011;8599;47.852;12.070;2023-06-19T05:30:51;14.45;;;8.25;;
16965;SDS011;8599;47.852;12.070;2023-06-19T05:33:18;12.30;;;8.57;;
16965;SDS011;8599;47.852;12.070;2023-06-19T05:35:45;11.55;;;8.68;;
16965;SDS011;8599;47.852;12.070;2023-06-19T05:38:17;15.60;;;8.50;;
16965;SDS011;8599;47.852;12.070;2023-06-19T05:40:45;12.20;;;8.90;;
16965;SDS011;8599;47.852;12.070;2023-06-19T05:43:12;16.20;;;9.67;;
16965;SDS011;8599;47.852;12.070;2023-06-19T05:45:39;11.90;;;8.65;;
16965;SDS011;8599;47.852;12.070;2023-06-19T05:48:05;12.55;;;8.68;;
16965;SDS011;8599;47.852;12.070;2023-06-19T05:50:32;12.90;;;8.87;;
16965;SDS011;8599;47.852;12.070;2023-06-19T05:52:59;12.43;;;8.25;;
16965;SDS011;8599;47.852;12.070;2023-06-19T05:55:26;15.57;;;10.30;;
16965;SDS011;8599;47.852;12.070;2023-06-19T05:57:55;12.32;;;8.40;;
16965;SDS011;8599;47.852;12.070;2023-06-19T06:00:22;12.53;;;8.77;;
16965;SDS011;8599;47.852;12.070;2023-06-19T06:02:49;12.77;;;8.97;;
16965;SDS011;8599;47.852;12.070;2023-06-19T06:05:16;14.88;;;8.68;;
16965;SDS011;8599;47.852;12.070;2023-06-19T06:07:45;13.20;;;9.40;;
16965;SDS011;8599;47.852;12.070;2023-06-19T06:10:12;12.65;;;8.60;;
16965;SDS011;8599;47.852;12.070;2023-06-19T06:12:39;13.50;;;9.10;;
16965;SDS011;8599;47.852;12.070;2023-06-19T06:15:07;10.70;;;8.60;;
16965;SDS011;8599;47.852;12.070;2023-06-19T06:17:34;11.52;;;9.02;;
16965;SDS011;8599;47.852;12.070;2023-06-19T06:20:01;12.70;;;9.07;;
16965;SDS011;8599;47.852;12.070;2023-06-19T06:22:31;12.25;;;9.10;;
16965;SDS011;8599;47.852;12.070;2023-06-19T06:24:58;16.85;;;9.55;;
16965;SDS011;8599;47.852;12.070;2023-06-19T06:27:25;14.60;;;9.55;;
16965;SDS011;8599;47.852;12.070;2023-06-19T06:29:52;13.02;;;8.82;;
16965;SDS011;8599;47.852;12.070;2023-06-19T06:32:20;13.63;;;9.38;;
16965;SDS011;8599;47.852;12.070;2023-06-19T06:34:47;11.02;;;8.10;;
16965;SDS011;8599;47.852;12.070;2023-06-19T06:37:14;9.38;;;7.20;;
16965;SDS011;8599;47.852;12.070;2023-06-19T06:39:42;12.73;;;8.90;;
16965;SDS011;8599;47.852;12.070;2023-06-19T06:42:09;10.88;;;8.30;;
16965;SDS011;8599;47.852;12.070;2023-06-19T06:44:36;14.23;;;8.15;;
16965;SDS011;8599;47.852;12.070;2023-06-19T06:47:03;11.13;;;8.25;;
16965;SDS011;8599;47.852;12.070;2023-06-19T06:49:31;10.27;;;7.82;;
16965;SDS011;8599;47.852;12.070;2023-06-19T06:51:58;13.38;;;8.57;;
16965;SDS011;8599;47.852;12.070;2023-06-19T06:54:26;13.45;;;8.98;;
16965;SDS011;8599;47.852;12.070;2023-06-19T06:56:52;12.60;;;7.97;;
16965;SDS011;8599;47.852;12.070;2023-06-19T06:59:21;16.10;;;7.82;;
16965;SDS011;8599;47.852;12.070;2023-06-19T07:01:48;11.27;;;8.38;;
16965;SDS011;8599;47.852;12.070;2023-06-19T07:04:15;17.45;;;8.50;;
16965;SDS011;8599;47.852;12.070;2023-06-19T07:06:43;14.75;;;7.70;;
16965;SDS011;8599;47.852;12.070;2023-06-19T07:09:10;14.38;;;8.10;;
16965;SDS011;8599;47.852;12.070;2023-06-19T07:11:37;19.13;;;8.90;;
16965;SDS011;8599;47.852;12.070;2023-06-19T07:14:04;10.55;;;7.22;;
16965;SDS011;8599;47.852;12.070;2023-06-19T07:16:31;10.45;;;7.53;;
16965;SDS011;8599;47.852;12.070;2023-06-19T07:18:58;8.43;;;6.30;;
16965;SDS011;8599;47.852;12.070;2023-06-19T07:21:24;9.25;;;7.07;;
16965;SDS011;8599;47.852;12.070;2023-06-19T07:23:55;12.60;;;6.47;;
16965;SDS011;8599;47.852;12.070;2023-06-19T07:26:23;10.90;;;6.80;;
16965;SDS011;8599;47.852;12.070;2023-06-19T07:28:50;8.32;;;6.25;;
16965;SDS011;8599;47.852;12.070;2023-06-19T07:31:16;9.25;;;6.28;;
16965;SDS011;8599;47.852;12.070;2023-06-19T07:33:43;10.25;;;6.00;;
16965;SDS011;8599;47.852;12.070;2023-06-19T07:36:10;7.63;;;5.95;;
16965;SDS011;8599;47.852;12.070;2023-06-19T07:38:39;8.68;;;5.78;;
16965;SDS011;8599;47.852;12.070;2023-06-19T07:41:07;9.20;;;6.10;;
16965;SDS011;8599;47.852;12.070;2023-06-19T07:43:35;9.23;;;5.72;;
16965;SDS011;8599;47.852;12.070;2023-06-19T07:46:01;7.50;;;5.90;;
16965;SDS011;8599;47.852;12.070;2023-06-19T07:48:28;7.32;;;5.57;;
16965;SDS011;8599;47.852;12.070;2023-06-19T07:50:55;7.65;;;5.40;;
16965;SDS011;8599;47.852;12.070;2023-06-19T07:53:22;12.07;;;4.90;;
16965;SDS011;8599;47.852;12.070;2023-06-19T07:55:49;8.00;;;5.15;;
16965;SDS011;8599;47.852;12.070;2023-06-19T07:58:17;6.78;;;4.80;;
16965;SDS011;8599;47.852;12.070;2023-06-19T08:00:44;6.88;;;5.07;;
16965;SDS011;8599;47.852;12.070;2023-06-19T08:03:11;4.82;;;4.32;;
16965;SDS011;8599;47.852;12.070;2023-06-19T08:05:37;6.28;;;5.25;;
16965;SDS011;8599;47.852;12.070;2023-06-19T08:08:04;6.63;;;4.78;;
16965;SDS011;8599;47.852;12.070;2023-06-19T08:10:31;8.73;;;4.63;;
16965;SDS011;8599;47.852;12.070;2023-06-19T08:12:58;7.20;;;4.80;;
16965;SDS011;8599;47.852;12.070;2023-06-19T08:15:26;5.75;;;4.90;;
16965;SDS011;8599;47.852;12.070;2023-06-19T08:17:53;6.13;;;4.90;;
16965;SDS011;8599;47.852;12.070;2023-06-19T08:20:20;6.05;;;4.93;;
16965;SDS011;8599;47.852;12.070;2023-06-19T08:22:46;6.88;;;4.53;;
16965;SDS011;8599;47.852;12.070;2023-06-19T08:25:15;6.82;;;4.20;;
16965;SDS011;8599;47.852;12.070;2023-06-19T08:27:42;7.88;;;4.68;;
16965;SDS011;8599;47.852;12.070;2023-06-19T08:30:10;6.43;;;5.00;;
16965;SDS011;8599;47.852;12.070;2023-06-19T08:32:38;7.22;;;5.28;;
16965;SDS011;8599;47.852;12.070;2023-06-19T08:35:05;5.85;;;4.80;;
16965;SDS011;8599;47.852;12.070;2023-06-19T08:37:32;5.70;;;4.82;;
16965;SDS011;8599;47.852;12.070;2023-06-19T08:39:59;6.55;;;5.05;;
16965;SDS011;8599;47.852;12.070;2023-06-19T08:42:29;6.53;;;5.40;;
16965;SDS011;8599;47.852;12.070;2023-06-19T08:44:56;8.15;;;5.38;;
16965;SDS011;8599;47.852;12.070;2023-06-19T08:47:22;5.35;;;4.80;;
16965;SDS011;8599;47.852;12.070;2023-06-19T08:49:57;6.13;;;4.88;;
16965;SDS011;8599;47.852;12.070;2023-06-19T08:52:24;5.53;;;4.75;;
16965;SDS011;8599;47.852;12.070;2023-06-19T08:54:51;5.00;;;4.40;;
16965;SDS011;8599;47.852;12.070;2023-06-19T08:57:18;5.15;;;4.63;;
16965;SDS011;8599;47.852;12.070;2023-06-19T08:59:47;5.35;;;4.10;;
16965;SDS011;8599;47.852;12.070;2023-06-19T09:02:15;6.60;;;4.97;;
16965;SDS011;8599;47.852;12.070;2023-06-19T09:04:42;9.30;;;4.60;;
16965;SDS011;8599;47.852;12.070;2023-06-19T09:07:11;10.00;;;4.10;;
16965;SDS011;8599;47.852;12.070;2023-06-19T09:09:43;6.05;;;4.70;;
16965;SDS011;8599;47.852;12.070;2023-06-19T09:12:12;7.38;;;4.80;;
16965;SDS011;8599;47.852;12.070;2023-06-19T09:14:39;5.97;;;4.28;;
16965;SDS011;8599;47.852;12.070;2023-06-19T09:17:10;6.78;;;4.75;;
16965;SDS011;8599;47.852;12.070;2023-06-19T09:19:46;8.13;;;4.40;;
16965;SDS011;8599;47.852;12.070;2023-06-19T09:22:16;5.45;;;4.43;;
16965;SDS011;8599;47.852;12.070;2023-06-19T09:24:44;5.53;;;4.70;;
16965;SDS011;8599;47.852;12.070;2023-06-19T09:27:11;5.30;;;4.80;;
16965;SDS011;8599;47.852;12.070;2023-06-19T09:29:39;5.05;;;4.55;;
16965;SDS011;8599;47.852;12.070;2023-06-19T09:32:16;5.65;;;4.25;;
16965;SDS011;8599;47.852;12.070;2023-06-19T09:34:44;5.30;;;4.72;;
16965;SDS011;8599;47.852;12.070;2023-06-19T09:37:11;5.03;;;4.00;;
16965;SDS011;8599;47.852;12.070;2023-06-19T09:39:39;5.47;;;4.35;;
16965;SDS011;8599;47.852;12.070;2023-06-19T09:42:07;6.25;;;4.00;;
16965;SDS011;8599;47.852;12.070;2023-06-19T09:44:39;4.93;;;4.43;;
16965;SDS011;8599;47.852;12.070;2023-06-19T09:47:10;6.40;;;4.57;;
16965;SDS011;8599;47.852;12.070;2023-06-19T09:49:43;4.97;;;4.47;;
16965;SDS011;8599;47.852;12.070;2023-06-19T09:52:15;5.18;;;4.43;;
16965;SDS011;8599;47.852;12.070;2023-06-19T09:54:43;5.60;;;4.60;;
16965;SDS011;8599;47.852;12.070;2023-06-19T09:57:10;7.05;;;4.90;;
16965;SDS011;8599;47.852;12.070;2023-06-19T09:59:37;6.70;;;5.22;;
16965;SDS011;8599;47.852;12.070;2023-06-19T10:02:05;5.35;;;4.28;;
16965;SDS011;8599;47.852;12.070;2023-06-19T10:04:41;6.40;;;5.00;;
16965;SDS011;8599;47.852;12.070;2023-06-19T10:07:14;6.65;;;5.22;;
16965;SDS011;8599;47.852;12.070;2023-06-19T10:09:55;5.32;;;4.43;;
16965;SDS011;8599;47.852;12.070;2023-06-19T10:12:33;10.65;;;5.10;;
16965;SDS011;8599;47.852;12.070;2023-06-19T10:17:47;6.53;;;4.75;;
16965;SDS011;8599;47.852;12.070;2023-06-19T10:20:22;6.88;;;5.10;;
16965;SDS011;8599;47.852;12.070;2023-06-19T10:22:51;7.00;;;4.90;;
16965;SDS011;8599;47.852;12.070;2023-06-19T10:25:23;5.53;;;4.75;;
16965;SDS011;8599;47.852;12.070;2023-06-19T10:27:53;8.48;;;4.75;;
16965;SDS011;8599;47.852;12.070;2023-06-19T10:30:20;6.40;;;5.03;;
16965;SDS011;8599;47.852;12.070;2023-06-19T10:32:46;5.20;;;4.65;;
16965;SDS011;8599;47.852;12.070;2023-06-19T10:35:14;7.00;;;5.38;;
16965;SDS011;8599;47.852;12.070;2023-06-19T10:37:42;5.43;;;4.93;;
16965;SDS011;8599;47.852;12.070;2023-06-19T10:40:10;5.93;;;4.93;;
16965;SDS011;8599;47.852;12.070;2023-06-19T10:42:39;7.38;;;5.10;;
16965;SDS011;8599;47.852;12.070;2023-06-19T10:45:07;6.15;;;4.40;;
16965;SDS011;8599;47.852;12.070;2023-06-19T10:47:37;5.57;;;4.47;;
16965;SDS011;8599;47.852;12.070;2023-06-19T10:50:05;6.57;;;4.40;;
16965;SDS011;8599;47.852;12.070;2023-06-19T10:52:35;6.35;;;4.75;;
16965;SDS011;8599;47.852;12.070;2023-06-19T10:55:03;6.88;;;4.95;;
16965;SDS011;8599;47.852;12.070;2023-06-19T10:57:30;8.43;;;4.78;;
16965;SDS011;8599;47.852;12.070;2023-06-19T10:59:59;8.57;;;5.28;;
16965;SDS011;8599;47.852;12.070;2023-06-19T11:02:25;5.65;;;4.70;;
16965;SDS011;8599;47.852;12.070;2023-06-19T11:04:53;6.43;;;4.75;;
16965;SDS011;8599;47.852;12.070;2023-06-19T11:07:20;5.68;;;4.57;;
16965;SDS011;8599;47.852;12.070;2023-06-19T11:09:48;5.72;;;4.30;;
16965;SDS011;8599;47.852;12.070;2023-06-19T11:12:18;6.00;;;4.85;;
16965;SDS011;8599;47.852;12.070;2023-06-19T11:14:46;4.97;;;4.30;;
16965;SDS011;8599;47.852;12.070;2023-06-19T11:17:15;6.55;;;4.57;;
16965;SDS011;8599;47.852;12.070;2023-06-19T11:19:43;5.95;;;4.70;;
16965;SDS011;8599;47.852;12.070;2023-06-19T11:22:10;8.73;;;4.38;;
16965;SDS011;8599;47.852;12.070;2023-06-19T11:24:42;5.50;;;4.28;;
16965;SDS011;8599;47.852;12.070;2023-06-19T11:27:15;4.50;;;4.10;;
16965;SDS011;8599;47.852;12.070;2023-06-19T11:29:43;4.70;;;3.90;;
16965;SDS011;8599;47.852;12.070;2023-06-19T11:32:12;4.72;;;4.22;;
16965;SDS011;8599;47.852;12.070;2023-06-19T11:34:47;5.57;;;4.40;;
16965;SDS011;8599;47.852;12.070;2023-06-19T11:37:15;5.80;;;4.63;;
16965;SDS011;8599;47.852;12.070;2023-06-19T11:39:43;8.73;;;4.65;;
16965;SDS011;8599;47.852;12.070;2023-06-19T11:42:10;5.57;;;4.07;;
16965;SDS011;8599;47.852;12.070;2023-06-19T11:44:52;9.52;;;4.45;;
16965;SDS011;8599;47.852;12.070;2023-06-19T11:47:21;6.70;;;4.68;;
16965;SDS011;8599;47.852;12.070;2023-06-19T11:49:48;7.07;;;4.50;;
16965;SDS011;8599;47.852;12.070;2023-06-19T11:52:15;7.03;;;4.93;;
16965;SDS011;8599;47.852;12.070;2023-06-19T11:54:42;6.50;;;4.60;;
16965;SDS011;8599;47.852;12.070;2023-06-19T11:57:09;6.22;;;4.75;;
16965;SDS011;8599;47.852;12.070;2023-06-19T11:59:37;5.72;;;4.65;;
16965;SDS011;8599;47.852;12.070;2023-06-19T12:02:04;6.05;;;5.35;;
16965;SDS011;8599;47.852;12.070;2023-06-19T12:04:32;6.13;;;4.65;;
16965;SDS011;8599;47.852;12.070;2023-06-19T12:06:59;5.47;;;4.35;;
16965;SDS011;8599;47.852;12.070;2023-06-19T12:09:27;5.18;;;4.68;;
16965;SDS011;8599;47.852;12.070;2023-06-19T12:11:54;5.57;;;4.70;;
16965;SDS011;8599;47.852;12.070;2023-06-19T12:14:21;6.38;;;4.78;;
16965;SDS011;8599;47.852;12.070;2023-06-19T12:16:49;5.20;;;4.70;;
16965;SDS011;8599;47.852;12.070;2023-06-19T12:19:16;5.32;;;4.45;;
16965;SDS011;8599;47.852;12.070;2023-06-19T12:21:45;5.10;;;4.20;;
16965;SDS011;8599;47.852;12.070;2023-06-19T12:24:12;7.93;;;4.90;;
16965;SDS011;8599;47.852;12.070;2023-06-19T12:26:39;7.38;;;4.72;;
16965;SDS011;8599;47.852;12.070;2023-06-19T12:29:06;6.35;;;4.45;;
16965;SDS011;8599;47.852;12.070;2023-06-19T12:31:33;6.78;;;5.43;;
16965;SDS011;8599;47.852;12.070;2023-06-19T12:34:00;5.10;;;4.68;;
16965;SDS011;8599;47.852;12.070;2023-06-19T12:36:27;5.53;;;4.72;;
16965;SDS011;8599;47.852;12.070;2023-06-19T12:38:58;5.32;;;4.18;;
16965;SDS011;8599;47.852;12.070;2023-06-19T12:41:25;6.50;;;5.40;;
16965;SDS011;8599;47.852;12.070;2023-06-19T12:43:52;5.50;;;4.72;;
16965;SDS011;8599;47.852;12.070;2023-06-19T12:46:18;6.43;;;5.13;;
16965;SDS011;8599;47.852;12.070;2023-06-19T12:48:46;6.82;;;5.18;;
16965;SDS011;8599;47.852;12.070;2023-06-19T12:51:15;9.95;;;5.13;;
16965;SDS011;8599;47.852;12.070;2023-06-19T12:53:42;5.55;;;4.85;;
16965;SDS011;8599;47.852;12.070;2023-06-19T12:56:11;6.55;;;4.80;;
16965;SDS011;8599;47.852;12.070;2023-06-19T12:58:38;7.50;;;5.10;;
16965;SDS011;8599;47.852;12.070;2023-06-19T13:01:04;6.97;;;5.22;;
16965;SDS011;8599;47.852;12.070;2023-06-19T13:03:31;6.45;;;4.90;;
16965;SDS011;8599;47.852;12.070;2023-06-19T13:05:58;5.22;;;4.70;;
16965;SDS011;8599;47.852;12.070;2023-06-19T13:08:25;6.20;;;4.78;;
16965;SDS011;8599;47.852;12.070;2023-06-19T13:10:51;5.43;;;4.93;;
16965;SDS011;8599;47.852;12.070;2023-06-19T13:13:20;5.22;;;4.68;;
16965;SDS011;8599;47.852;12.070;2023-06-19T13:15:46;7.43;;;5.00;;
16965;SDS011;8599;47.852;12.070;2023-06-19T13:18:13;6.00;;;4.80;;
16965;SDS011;8599;47.852;12.070;2023-06-19T13:20:40;5.18;;;4.63;;
16965;SDS011;8599;47.852;12.070;2023-06-19T13:23:08;6.30;;;4.65;;
16965;SDS011;8599;47.852;12.070;2023-06-19T13:25:35;6.30;;;5.10;;
16965;SDS011;8599;47.852;12.070;2023-06-19T13:28:01;10.13;;;5.15;;
16965;SDS011;8599;47.852;12.070;2023-06-19T13:30:30;7.82;;;4.97;;
16965;SDS011;8599;47.852;12.070;2023-06-19T13:32:56;5.43;;;4.50;;
16965;SDS011;8599;47.852;12.070;2023-06-19T13:35:23;4.70;;;4.30;;
16965;SDS011;8599;47.852;12.070;2023-06-19T13:37:50;6.25;;;4.38;;
16965;SDS011;8599;47.852;12.070;2023-06-19T13:40:17;4.88;;;4.35;;
16965;SDS011;8599;47.852;12.070;2023-06-19T13:42:44;5.88;;;4.65;;
16965;SDS011;8599;47.852;12.070;2023-06-19T13:45:11;5.80;;;4.50;;
16965;SDS011;8599;47.852;12.070;2023-06-19T13:47:39;6.15;;;4.93;;
16965;SDS011;8599;47.852;12.070;2023-06-19T13:50:06;5.22;;;4.35;;
16965;SDS011;8599;47.852;12.070;2023-06-19T13:52:34;6.13;;;4.47;;
16965;SDS011;8599;47.852;12.070;2023-06-19T13:55:01;5.72;;;4.63;;
16965;SDS011;8599;47.852;12.070;2023-06-19T13:57:29;7.68;;;4.60;;
16965;SDS011;8599;47.852;12.070;2023-06-19T13:59:55;4.82;;;4.38;;
16965;SDS011;8599;47.852;12.070;2023-06-19T14:02:22;4.75;;;4.30;;
16965;SDS011;8599;47.852;12.070;2023-06-19T14:04:50;5.15;;;4.40;;
16965;SDS011;8599;47.852;12.070;2023-06-19T14:07:17;7.97;;;4.72;;
16965;SDS011;8599;47.852;12.070;2023-06-19T14:09:46;5.35;;;4.50;;
16965;SDS011;8599;47.852;12.070;2023-06-19T14:12:14;7.32;;;4.95;;
16965;SDS011;8599;47.852;12.070;2023-06-19T14:14:41;7.55;;;4.82;;
16965;SDS011;8599;47.852;12.070;2023-06-19T14:17:07;4.65;;;4.10;;
16965;SDS011;8599;47.852;12.070;2023-06-19T14:19:34;6.03;;;4.90;;
16965;SDS011;8599;47.852;12.070;2023-06-19T14:22:02;4.75;;;4.18;;
16965;SDS011;8599;47.852;12.070;2023-06-19T14:24:29;4.72;;;4.28;;
16965;SDS011;8599;47.852;12.070;2023-06-19T14:26:56;5.38;;;4.13;;
16965;SDS011;8599;47.852;12.070;2023-06-19T14:29:23;7.07;;;4.47;;
16965;SDS011;8599;47.852;12.070;2023-06-19T14:31:50;6.13;;;4.75;;
16965;SDS011;8599;47.852;12.070;2023-06-19T14:34:18;8.65;;;4.57;;
16965;SDS011;8599;47.852;12.070;2023-06-19T14:36:45;6.88;;;4.30;;
16965;SDS011;8599;47.852;12.070;2023-06-19T14:39:13;4.95;;;4.43;;
16965;SDS011;8599;47.852;12.070;2023-06-19T14:41:41;7.18;;;4.70;;
16965;SDS011;8599;47.852;12.070;2023-06-19T14:44:08;7.40;;;4.20;;
16965;SDS011;8599;47.852;12.070;2023-06-19T14:46:35;5.15;;;4.50;;